sensor_id;sensor_type;location;lat;lon;timestamp;P1;durP1;ratioP1;P2;durP2;ratioP2
49502;SDS011;35409;48.776;9.204;2022-08-21T00:01:26;2.85;;;2.22;;
49502;SDS011;35409;48.776;9.204;2022-08-21T00:03:53;4.53;;;2.35;;
49502;SDS011;35409;48.776;9.204;2022-08-21T00:06:20;4.20;;;2.70;;
49502;SDS011;35409;48.776;9.204;2022-08-21T00:08:47;3.70;;;2.58;;
49502;SDS011;35409;48.776;9.204;2022-08-21T00:11:13;5.30;;;2.33;;
49502;SDS011;35409;48.776;9.204;2022-08-21T00:13:39;4.57;;;2.95;;
49502;SDS011;35409;48.776;9.204;2022-08-21T00:16:05;4.82;;;2.28;;
49502;SDS011;35409;48.776;9.204;2022-08-21T00:18:30;4.10;;;2.38;;
49502;SDS011;35409;48.776;9.204;2022-08-21T00:20:56;4.90;;;3.17;;
49502;SDS011;35409;48.776;9.204;2022-08-21T00:23:22;3.00;;;2.25;;
49502;SDS011;35409;48.776;9.204;2022-08-21T00:25:48;6.47;;;2.50;;
49502;SDS011;35409;48.776;9.204;2022-08-21T00:28:16;4.80;;;2.20;;
49502;SDS011;35409;48.776;9.204;2022-08-21T00:30:43;7.05;;;2.63;;
49502;SDS011;35409;48.776;9.204;2022-08-21T00:33:10;3.22;;;1.95;;
49502;SDS011;35409;48.776;9.204;2022-08-21T00:35:37;4.53;;;2.03;;
49502;SDS011;35409;48.776;9.204;2022-08-21T00:38:04;3.83;;;1.90;;
49502;SDS011;35409;48.776;9.204;2022-08-21T00:40:39;3.70;;;2.38;;
49502;SDS011;35409;48.776;9.204;2022-08-21T00:43:07;4.10;;;1.90;;
49502;SDS011;35409;48.776;9.204;2022-08-21T00:45:34;3.63;;;1.90;;
49502;SDS011;35409;48.776;9.204;2022-08-21T00:48:00;5.32;;;2.20;;
49502;SDS011;35409;48.776;9.204;2022-08-21T00:50:28;2.75;;;2.03;;
49502;SDS011;35409;48.776;9.204;2022-08-21T00:52:57;3.47;;;1.80;;
49502;SDS011;35409;48.776;9.204;2022-08-21T00:55:23;4.13;;;2.17;;
49502;SDS011;35409;48.776;9.204;2022-08-21T00:57:51;5.43;;;2.00;;
49502;SDS011;35409;48.776;9.204;2022-08-21T01:00:28;4.55;;;2.42;;
49502;SDS011;35409;48.776;9.204;2022-08-21T01:02:56;3.08;;;2.00;;
49502;SDS011;35409;48.776;9.204;2022-08-21T01:05:23;4.88;;;1.98;;
49502;SDS011;35409;48.776;9.204;2022-08-21T01:07:49;2.78;;;1.80;;
49502;SDS011;35409;48.776;9.204;2022-08-21T01:10:15;2.80;;;2.00;;
49502;SDS011;35409;48.776;9.204;2022-08-21T01:12:43;4.28;;;2.20;;
49502;SDS011;35409;48.776;9.204;2022-08-21T01:15:09;5.35;;;1.90;;
49502;SDS011;35409;48.776;9.204;2022-08-21T01:17:35;4.65;;;2.15;;
49502;SDS011;35409;48.776;9.204;2022-08-21T01:20:03;2.88;;;1.75;;
49502;SDS011;35409;48.776;9.204;2022-08-21T01:22:31;2.83;;;1.80;;
49502;SDS011;35409;48.776;9.204;2022-08-21T01:24:56;5.97;;;2.67;;
49502;SDS011;35409;48.776;9.204;2022-08-21T01:27:22;4.65;;;2.25;;
49502;SDS011;35409;48.776;9.204;2022-08-21T01:29:54;4.72;;;1.60;;
49502;SDS011;35409;48.776;9.204;2022-08-21T01:32:22;3.13;;;1.83;;
49502;SDS011;35409;48.776;9.204;2022-08-21T01:34:48;3.63;;;1.83;;
49502;SDS011;35409;48.776;9.204;2022-08-21T01:37:15;3.97;;;1.90;;
49502;SDS011;35409;48.776;9.204;2022-08-21T01:39:41;4.03;;;2.05;;
49502;SDS011;35409;48.776;9.204;2022-08-21T01:42:07;7.78;;;2.50;;
49502;SDS011;35409;48.776;9.204;2022-08-21T01:44:34;5.63;;;1.77;;
49502;SDS011;35409;48.776;9.204;2022-08-21T01:47:01;4.78;;;2.45;;
49502;SDS011;35409;48.776;9.204;2022-08-21T01:49:27;2.95;;;2.10;;
49502;SDS011;35409;48.776;9.204;2022-08-21T01:51:53;3.53;;;1.90;;
49502;SDS011;35409;48.776;9.204;2022-08-21T01:54:19;5.95;;;2.60;;
49502;SDS011;35409;48.776;9.204;2022-08-21T01:56:46;5.88;;;2.40;;
49502;SDS011;35409;48.776;9.204;2022-08-21T01:59:13;5.78;;;2.10;;
49502;SDS011;35409;48.776;9.204;2022-08-21T02:01:39;3.63;;;2.00;;
49502;SDS011;35409;48.776;9.204;2022-08-21T02:04:05;4.07;;;2.20;;
49502;SDS011;35409;48.776;9.204;2022-08-21T02:06:32;3.60;;;2.05;;
49502;SDS011;35409;48.776;9.204;2022-08-21T02:08:58;3.72;;;2.35;;
49502;SDS011;35409;48.776;9.204;2022-08-21T02:11:23;3.78;;;1.90;;
49502;SDS011;35409;48.776;9.204;2022-08-21T02:13:49;4.70;;;2.30;;
49502;SDS011;35409;48.776;9.204;2022-08-21T02:16:15;5.82;;;2.28;;
49502;SDS011;35409;48.776;9.204;2022-08-21T02:18:41;2.50;;;1.83;;
49502;SDS011;35409;48.776;9.204;2022-08-21T02:21:07;2.97;;;1.88;;
49502;SDS011;35409;48.776;9.204;2022-08-21T02:23:33;4.43;;;2.17;;
49502;SDS011;35409;48.776;9.204;2022-08-21T02:26:00;3.90;;;2.00;;
49502;SDS011;35409;48.776;9.204;2022-08-21T02:28:27;2.75;;;2.10;;
49502;SDS011;35409;48.776;9.204;2022-08-21T02:30:53;4.28;;;2.22;;
49502;SDS011;35409;48.776;9.204;2022-08-21T02:33:22;6.22;;;2.70;;
49502;SDS011;35409;48.776;9.204;2022-08-21T02:35:49;2.75;;;2.20;;
49502;SDS011;35409;48.776;9.204;2022-08-21T02:38:25;2.95;;;1.90;;
49502;SDS011;35409;48.776;9.204;2022-08-21T02:40:53;3.70;;;2.47;;
49502;SDS011;35409;48.776;9.204;2022-08-21T02:43:20;4.70;;;2.22;;
49502;SDS011;35409;48.776;9.204;2022-08-21T02:45:47;5.13;;;2.47;;
49502;SDS011;35409;48.776;9.204;2022-08-21T02:48:15;4.55;;;2.42;;
49502;SDS011;35409;48.776;9.204;2022-08-21T02:50:47;5.75;;;2.40;;
49502;SDS011;35409;48.776;9.204;2022-08-21T02:53:17;4.43;;;2.65;;
49502;SDS011;35409;48.776;9.204;2022-08-21T02:55:44;5.05;;;2.45;;
49502;SDS011;35409;48.776;9.204;2022-08-21T02:58:12;6.45;;;3.17;;
49502;SDS011;35409;48.776;9.204;2022-08-21T03:00:39;4.35;;;2.75;;
49502;SDS011;35409;48.776;9.204;2022-08-21T03:03:05;4.45;;;2.53;;
49502;SDS011;35409;48.776;9.204;2022-08-21T03:05:31;5.35;;;2.15;;
49502;SDS011;35409;48.776;9.204;2022-08-21T03:07:59;5.85;;;2.00;;
49502;SDS011;35409;48.776;9.204;2022-08-21T03:10:26;4.78;;;2.55;;
49502;SDS011;35409;48.776;9.204;2022-08-21T03:12:53;5.45;;;3.00;;
49502;SDS011;35409;48.776;9.204;2022-08-21T03:15:20;3.35;;;2.10;;
49502;SDS011;35409;48.776;9.204;2022-08-21T03:17:48;4.07;;;2.42;;
49502;SDS011;35409;48.776;9.204;2022-08-21T03:20:17;4.65;;;2.60;;
49502;SDS011;35409;48.776;9.204;2022-08-21T03:22:44;5.70;;;2.70;;
49502;SDS011;35409;48.776;9.204;2022-08-21T03:25:09;4.78;;;2.42;;
49502;SDS011;35409;48.776;9.204;2022-08-21T03:27:36;4.13;;;2.70;;
49502;SDS011;35409;48.776;9.204;2022-08-21T03:30:03;4.18;;;2.22;;
49502;SDS011;35409;48.776;9.204;2022-08-21T03:32:30;5.00;;;2.80;;
49502;SDS011;35409;48.776;9.204;2022-08-21T03:34:56;5.82;;;2.80;;
49502;SDS011;35409;48.776;9.204;2022-08-21T03:37:26;4.05;;;2.50;;
49502;SDS011;35409;48.776;9.204;2022-08-21T03:39:52;5.10;;;2.97;;
49502;SDS011;35409;48.776;9.204;2022-08-21T03:42:18;7.68;;;2.80;;
49502;SDS011;35409;48.776;9.204;2022-08-21T03:44:44;5.88;;;3.00;;
49502;SDS011;35409;48.776;9.204;2022-08-21T03:47:09;3.95;;;2.78;;
49502;SDS011;35409;48.776;9.204;2022-08-21T03:49:35;4.88;;;2.80;;
49502;SDS011;35409;48.776;9.204;2022-08-21T03:52:04;4.90;;;2.70;;
49502;SDS011;35409;48.776;9.204;2022-08-21T03:54:30;6.18;;;3.30;;
49502;SDS011;35409;48.776;9.204;2022-08-21T03:56:56;6.18;;;3.05;;
49502;SDS011;35409;48.776;9.204;2022-08-21T03:59:22;5.00;;;2.60;;
49502;SDS011;35409;48.776;9.204;2022-08-21T04:01:56;3.30;;;2.40;;
49502;SDS011;35409;48.776;9.204;2022-08-21T04:04:27;6.07;;;3.00;;
49502;SDS011;35409;48.776;9.204;2022-08-21T04:06:54;3.15;;;2.42;;
49502;SDS011;35409;48.776;9.204;2022-08-21T04:09:20;4.20;;;2.67;;
49502;SDS011;35409;48.776;9.204;2022-08-21T04:11:46;5.03;;;3.15;;
49502;SDS011;35409;48.776;9.204;2022-08-21T04:14:12;5.55;;;2.70;;
49502;SDS011;35409;48.776;9.204;2022-08-21T04:16:39;6.05;;;3.13;;
49502;SDS011;35409;48.776;9.204;2022-08-21T04:19:06;4.82;;;2.33;;
49502;SDS011;35409;48.776;9.204;2022-08-21T04:21:32;4.82;;;2.75;;
49502;SDS011;35409;48.776;9.204;2022-08-21T04:23:58;7.20;;;3.17;;
49502;SDS011;35409;48.776;9.204;2022-08-21T04:26:24;5.13;;;2.67;;
49502;SDS011;35409;48.776;9.204;2022-08-21T04:28:50;4.28;;;2.80;;
49502;SDS011;35409;48.776;9.204;2022-08-21T04:31:17;4.38;;;2.88;;
49502;SDS011;35409;48.776;9.204;2022-08-21T04:33:43;4.07;;;2.92;;
49502;SDS011;35409;48.776;9.204;2022-08-21T04:36:09;4.07;;;3.13;;
49502;SDS011;35409;48.776;9.204;2022-08-21T04:38:35;8.07;;;3.42;;
49502;SDS011;35409;48.776;9.204;2022-08-21T04:41:02;3.63;;;2.80;;
49502;SDS011;35409;48.776;9.204;2022-08-21T04:43:29;4.88;;;2.95;;
49502;SDS011;35409;48.776;9.204;2022-08-21T04:45:57;5.00;;;3.05;;
49502;SDS011;35409;48.776;9.204;2022-08-21T04:48:23;5.53;;;3.40;;
49502;SDS011;35409;48.776;9.204;2022-08-21T04:50:58;4.15;;;3.03;;
49502;SDS011;35409;48.776;9.204;2022-08-21T04:56:22;4.95;;;3.00;;
49502;SDS011;35409;48.776;9.204;2022-08-21T04:58:52;7.38;;;2.90;;
49502;SDS011;35409;48.776;9.204;2022-08-21T05:01:21;4.55;;;2.40;;
49502;SDS011;35409;48.776;9.204;2022-08-21T05:03:53;9.57;;;3.20;;
49502;SDS011;35409;48.776;9.204;2022-08-21T05:06:21;6.55;;;3.05;;
49502;SDS011;35409;48.776;9.204;2022-08-21T05:08:48;4.38;;;2.60;;
49502;SDS011;35409;48.776;9.204;2022-08-21T05:11:17;7.77;;;3.07;;
49502;SDS011;35409;48.776;9.204;2022-08-21T05:13:45;4.95;;;2.70;;
49502;SDS011;35409;48.776;9.204;2022-08-21T05:16:10;4.35;;;3.05;;
49502;SDS011;35409;48.776;9.204;2022-08-21T05:18:36;4.57;;;2.75;;
49502;SDS011;35409;48.776;9.204;2022-08-21T05:21:02;6.32;;;3.63;;
49502;SDS011;35409;48.776;9.204;2022-08-21T05:23:28;5.78;;;3.17;;
49502;SDS011;35409;48.776;9.204;2022-08-21T05:25:53;4.88;;;3.17;;
49502;SDS011;35409;48.776;9.204;2022-08-21T05:28:20;5.82;;;2.80;;
49502;SDS011;35409;48.776;9.204;2022-08-21T05:30:46;5.10;;;3.10;;
49502;SDS011;35409;48.776;9.204;2022-08-21T05:33:11;4.07;;;2.72;;
49502;SDS011;35409;48.776;9.204;2022-08-21T05:35:37;2.95;;;2.40;;
49502;SDS011;35409;48.776;9.204;2022-08-21T05:38:04;6.85;;;2.90;;
49502;SDS011;35409;48.776;9.204;2022-08-21T05:40:30;4.78;;;2.95;;
49502;SDS011;35409;48.776;9.204;2022-08-21T05:42:56;4.22;;;2.83;;
49502;SDS011;35409;48.776;9.204;2022-08-21T05:45:24;8.20;;;3.20;;
49502;SDS011;35409;48.776;9.204;2022-08-21T05:47:55;3.20;;;2.55;;
49502;SDS011;35409;48.776;9.204;2022-08-21T05:50:21;5.18;;;3.03;;
49502;SDS011;35409;48.776;9.204;2022-08-21T05:52:46;6.03;;;3.35;;
49502;SDS011;35409;48.776;9.204;2022-08-21T05:55:12;6.20;;;3.28;;
49502;SDS011;35409;48.776;9.204;2022-08-21T05:57:38;4.57;;;2.90;;
49502;SDS011;35409;48.776;9.204;2022-08-21T06:00:06;7.93;;;3.17;;
49502;SDS011;35409;48.776;9.204;2022-08-21T06:02:34;6.22;;;2.95;;
49502;SDS011;35409;48.776;9.204;2022-08-21T06:05:01;5.80;;;3.38;;
49502;SDS011;35409;48.776;9.204;2022-08-21T06:07:27;5.95;;;3.22;;
49502;SDS011;35409;48.776;9.204;2022-08-21T06:09:53;4.50;;;3.10;;
49502;SDS011;35409;48.776;9.204;2022-08-21T06:12:19;5.43;;;2.97;;
49502;SDS011;35409;48.776;9.204;2022-08-21T06:14:45;6.10;;;2.85;;
49502;SDS011;35409;48.776;9.204;2022-08-21T06:17:11;5.18;;;3.17;;
49502;SDS011;35409;48.776;9.204;2022-08-21T06:19:38;6.32;;;2.90;;
49502;SDS011;35409;48.776;9.204;2022-08-21T06:22:04;4.75;;;2.85;;
49502;SDS011;35409;48.776;9.204;2022-08-21T06:24:30;6.03;;;3.20;;
49502;SDS011;35409;48.776;9.204;2022-08-21T06:26:56;6.63;;;3.00;;
49502;SDS011;35409;48.776;9.204;2022-08-21T06:29:22;7.53;;;3.30;;
49502;SDS011;35409;48.776;9.204;2022-08-21T06:31:48;5.28;;;3.13;;
49502;SDS011;35409;48.776;9.204;2022-08-21T06:34:15;5.55;;;3.15;;
49502;SDS011;35409;48.776;9.204;2022-08-21T06:36:41;6.70;;;3.50;;
49502;SDS011;35409;48.776;9.204;2022-08-21T06:39:07;7.13;;;3.28;;
49502;SDS011;35409;48.776;9.204;2022-08-21T06:41:33;11.20;;;3.10;;
49502;SDS011;35409;48.776;9.204;2022-08-21T06:43:59;7.55;;;3.08;;
49502;SDS011;35409;48.776;9.204;2022-08-21T06:46:25;5.68;;;3.20;;
49502;SDS011;35409;48.776;9.204;2022-08-21T06:48:53;4.03;;;2.45;;
49502;SDS011;35409;48.776;9.204;2022-08-21T06:51:19;8.05;;;2.80;;
49502;SDS011;35409;48.776;9.204;2022-08-21T06:53:44;4.22;;;2.80;;
49502;SDS011;35409;48.776;9.204;2022-08-21T06:56:11;9.30;;;2.70;;
49502;SDS011;35409;48.776;9.204;2022-08-21T06:58:37;4.85;;;2.67;;
49502;SDS011;35409;48.776;9.204;2022-08-21T07:01:06;4.75;;;2.85;;
49502;SDS011;35409;48.776;9.204;2022-08-21T07:03:39;5.32;;;2.80;;
49502;SDS011;35409;48.776;9.204;2022-08-21T07:06:06;4.20;;;2.67;;
49502;SDS011;35409;48.776;9.204;2022-08-21T07:08:33;7.85;;;3.15;;
49502;SDS011;35409;48.776;9.204;2022-08-21T07:11:00;5.80;;;2.90;;
49502;SDS011;35409;48.776;9.204;2022-08-21T07:13:28;8.30;;;3.10;;
49502;SDS011;35409;48.776;9.204;2022-08-21T07:15:53;5.18;;;2.90;;
49502;SDS011;35409;48.776;9.204;2022-08-21T07:18:19;7.05;;;2.90;;
49502;SDS011;35409;48.776;9.204;2022-08-21T07:20:45;6.45;;;2.65;;
49502;SDS011;35409;48.776;9.204;2022-08-21T07:23:14;4.85;;;2.80;;
49502;SDS011;35409;48.776;9.204;2022-08-21T07:25:46;8.38;;;3.00;;
49502;SDS011;35409;48.776;9.204;2022-08-21T07:28:12;9.88;;;3.33;;
49502;SDS011;35409;48.776;9.204;2022-08-21T07:30:37;6.45;;;3.13;;
49502;SDS011;35409;48.776;9.204;2022-08-21T07:33:03;5.60;;;2.95;;
49502;SDS011;35409;48.776;9.204;2022-08-21T07:35:28;7.68;;;3.30;;
49502;SDS011;35409;48.776;9.204;2022-08-21T07:37:56;6.70;;;3.03;;
49502;SDS011;35409;48.776;9.204;2022-08-21T07:40:21;13.93;;;3.60;;
49502;SDS011;35409;48.776;9.204;2022-08-21T07:42:47;7.10;;;3.28;;
49502;SDS011;35409;48.776;9.204;2022-08-21T07:45:16;7.28;;;3.35;;
49502;SDS011;35409;48.776;9.204;2022-08-21T07:47:43;8.85;;;3.58;;
49502;SDS011;35409;48.776;9.204;2022-08-21T07:50:10;5.70;;;3.08;;
49502;SDS011;35409;48.776;9.204;2022-08-21T07:52:36;8.27;;;3.20;;
49502;SDS011;35409;48.776;9.204;2022-08-21T07:55:02;11.20;;;3.60;;
49502;SDS011;35409;48.776;9.204;2022-08-21T07:57:28;7.45;;;3.40;;
49502;SDS011;35409;48.776;9.204;2022-08-21T07:59:54;6.05;;;2.92;;
49502;SDS011;35409;48.776;9.204;2022-08-21T08:02:26;4.40;;;2.92;;
49502;SDS011;35409;48.776;9.204;2022-08-21T08:04:54;6.72;;;3.47;;
49502;SDS011;35409;48.776;9.204;2022-08-21T08:07:22;6.63;;;3.80;;
49502;SDS011;35409;48.776;9.204;2022-08-21T08:09:48;4.03;;;2.97;;
49502;SDS011;35409;48.776;9.204;2022-08-21T08:12:14;8.88;;;3.60;;
49502;SDS011;35409;48.776;9.204;2022-08-21T08:14:39;8.07;;;3.67;;
49502;SDS011;35409;48.776;9.204;2022-08-21T08:17:05;6.82;;;3.13;;
49502;SDS011;35409;48.776;9.204;2022-08-21T08:19:30;8.30;;;3.58;;
49502;SDS011;35409;48.776;9.204;2022-08-21T08:21:56;10.55;;;3.05;;
49502;SDS011;35409;48.776;9.204;2022-08-21T08:24:22;7.47;;;3.20;;
49502;SDS011;35409;48.776;9.204;2022-08-21T08:26:47;10.27;;;3.40;;
49502;SDS011;35409;48.776;9.204;2022-08-21T08:29:13;5.07;;;3.03;;
49502;SDS011;35409;48.776;9.204;2022-08-21T08:31:39;5.63;;;3.10;;
49502;SDS011;35409;48.776;9.204;2022-08-21T08:34:05;6.78;;;3.20;;
49502;SDS011;35409;48.776;9.204;2022-08-21T08:36:32;7.85;;;3.35;;
49502;SDS011;35409;48.776;9.204;2022-08-21T08:39:00;9.32;;;3.40;;
49502;SDS011;35409;48.776;9.204;2022-08-21T08:41:27;9.93;;;3.25;;
49502;SDS011;35409;48.776;9.204;2022-08-21T08:43:57;5.45;;;3.22;;
49502;SDS011;35409;48.776;9.204;2022-08-21T08:46:26;8.60;;;3.42;;
49502;SDS011;35409;48.776;9.204;2022-08-21T08:49:11;6.07;;;3.00;;
49502;SDS011;35409;48.776;9.204;2022-08-21T08:54:34;5.70;;;3.15;;
49502;SDS011;35409;48.776;9.204;2022-08-21T08:57:09;5.95;;;2.90;;
49502;SDS011;35409;48.776;9.204;2022-08-21T08:59:48;7.88;;;3.30;;
49502;SDS011;35409;48.776;9.204;2022-08-21T09:02:20;7.70;;;3.33;;
49502;SDS011;35409;48.776;9.204;2022-08-21T09:04:48;9.02;;;3.40;;
49502;SDS011;35409;48.776;9.204;2022-08-21T09:07:18;4.88;;;3.13;;
49502;SDS011;35409;48.776;9.204;2022-08-21T09:09:59;6.32;;;2.85;;
49502;SDS011;35409;48.776;9.204;2022-08-21T09:25:08;8.27;;;3.67;;
49502;SDS011;35409;48.776;9.204;2022-08-21T09:27:39;9.73;;;3.97;;
49502;SDS011;35409;48.776;9.204;2022-08-21T09:30:05;6.60;;;2.92;;
49502;SDS011;35409;48.776;9.204;2022-08-21T09:32:32;9.13;;;3.80;;
49502;SDS011;35409;48.776;9.204;2022-08-21T09:35:04;6.18;;;3.92;;
49502;SDS011;35409;48.776;9.204;2022-08-21T09:37:31;10.23;;;3.13;;
49502;SDS011;35409;48.776;9.204;2022-08-21T09:40:00;8.20;;;3.80;;
49502;SDS011;35409;48.776;9.204;2022-08-21T09:42:40;9.43;;;4.03;;
49502;SDS011;35409;48.776;9.204;2022-08-21T09:45:12;12.93;;;4.10;;
49502;SDS011;35409;48.776;9.204;2022-08-21T09:47:44;8.85;;;3.38;;
49502;SDS011;35409;48.776;9.204;2022-08-21T09:50:20;10.57;;;4.00;;
49502;SDS011;35409;48.776;9.204;2022-08-21T09:52:51;6.65;;;3.83;;
49502;SDS011;35409;48.776;9.204;2022-08-21T09:58:49;9.27;;;3.20;;
49502;SDS011;35409;48.776;9.204;2022-08-21T10:01:17;9.05;;;3.88;;
49502;SDS011;35409;48.776;9.204;2022-08-21T10:03:45;7.22;;;3.33;;
49502;SDS011;35409;48.776;9.204;2022-08-21T10:06:20;5.97;;;3.38;;
49502;SDS011;35409;48.776;9.204;2022-08-21T10:11:28;7.35;;;3.50;;
49502;SDS011;35409;48.776;9.204;2022-08-21T10:17:04;8.27;;;3.58;;
49502;SDS011;35409;48.776;9.204;2022-08-21T10:30:03;11.25;;;4.45;;
49502;SDS011;35409;48.776;9.204;2022-08-21T10:36:37;6.07;;;3.28;;
49502;SDS011;35409;48.776;9.204;2022-08-21T10:50:18;7.38;;;3.85;;
49502;SDS011;35409;48.776;9.204;2022-08-21T10:55:20;6.82;;;3.80;;
49502;SDS011;35409;48.776;9.204;2022-08-21T11:00:19;6.28;;;2.92;;
49502;SDS011;35409;48.776;9.204;2022-08-21T11:08:17;7.00;;;3.28;;
49502;SDS011;35409;48.776;9.204;2022-08-21T11:11:02;7.20;;;3.13;;
49502;SDS011;35409;48.776;9.204;2022-08-21T11:13:38;7.93;;;4.00;;
49502;SDS011;35409;48.776;9.204;2022-08-21T11:16:20;6.03;;;3.70;;
49502;SDS011;35409;48.776;9.204;2022-08-21T11:19:05;7.95;;;3.53;;
49502;SDS011;35409;48.776;9.204;2022-08-21T11:27:17;7.22;;;3.28;;
49502;SDS011;35409;48.776;9.204;2022-08-21T11:29:54;9.50;;;3.70;;
49502;SDS011;35409;48.776;9.204;2022-08-21T11:32:35;7.30;;;4.18;;
49502;SDS011;35409;48.776;9.204;2022-08-21T11:38:17;8.73;;;4.15;;
49502;SDS011;35409;48.776;9.204;2022-08-21T11:41:28;4.85;;;3.22;;
49502;SDS011;35409;48.776;9.204;2022-08-21T11:56:14;5.85;;;3.40;;
49502;SDS011;35409;48.776;9.204;2022-08-21T11:58:53;8.35;;;3.42;;
49502;SDS011;35409;48.776;9.204;2022-08-21T12:01:25;10.45;;;3.55;;
49502;SDS011;35409;48.776;9.204;2022-08-21T12:03:58;6.00;;;3.03;;
49502;SDS011;35409;48.776;9.204;2022-08-21T12:06:31;5.50;;;3.55;;
49502;SDS011;35409;48.776;9.204;2022-08-21T12:09:28;6.88;;;4.10;;
49502;SDS011;35409;48.776;9.204;2022-08-21T12:14:45;5.10;;;3.45;;
49502;SDS011;35409;48.776;9.204;2022-08-21T12:17:22;8.50;;;4.05;;
49502;SDS011;35409;48.776;9.204;2022-08-21T12:20:42;7.88;;;3.58;;
49502;SDS011;35409;48.776;9.204;2022-08-21T12:22:53;5.15;;;3.65;;
49502;SDS011;35409;48.776;9.204;2022-08-21T12:25:35;6.95;;;3.58;;
49502;SDS011;35409;48.776;9.204;2022-08-21T12:28:07;6.30;;;3.15;;
49502;SDS011;35409;48.776;9.204;2022-08-21T12:30:39;4.65;;;3.05;;
49502;SDS011;35409;48.776;9.204;2022-08-21T12:36:05;11.35;;;3.50;;
49502;SDS011;35409;48.776;9.204;2022-08-21T12:41:20;7.20;;;3.47;;
49502;SDS011;35409;48.776;9.204;2022-08-21T12:43:53;5.40;;;3.03;;
49502;SDS011;35409;48.776;9.204;2022-08-21T12:46:34;5.13;;;3.20;;
49502;SDS011;35409;48.776;9.204;2022-08-21T12:49:16;6.88;;;3.42;;
49502;SDS011;35409;48.776;9.204;2022-08-21T12:51:54;7.45;;;3.33;;
49502;SDS011;35409;48.776;9.204;2022-08-21T12:54:28;4.32;;;2.97;;
49502;SDS011;35409;48.776;9.204;2022-08-21T12:57:03;4.70;;;3.28;;
49502;SDS011;35409;48.776;9.204;2022-08-21T12:59:30;6.57;;;3.15;;
49502;SDS011;35409;48.776;9.204;2022-08-21T13:01:57;5.40;;;3.47;;
49502;SDS011;35409;48.776;9.204;2022-08-21T13:04:36;7.47;;;3.40;;
49502;SDS011;35409;48.776;9.204;2022-08-21T13:07:09;5.60;;;3.15;;
49502;SDS011;35409;48.776;9.204;2022-08-21T13:09:47;6.15;;;3.20;;
49502;SDS011;35409;48.776;9.204;2022-08-21T13:12:20;5.60;;;3.60;;
49502;SDS011;35409;48.776;9.204;2022-08-21T13:14:48;7.47;;;3.13;;
49502;SDS011;35409;48.776;9.204;2022-08-21T13:17:16;7.10;;;3.78;;
49502;SDS011;35409;48.776;9.204;2022-08-21T13:19:54;8.20;;;3.95;;
49502;SDS011;35409;48.776;9.204;2022-08-21T13:22:22;7.90;;;4.00;;
49502;SDS011;35409;48.776;9.204;2022-08-21T13:24:50;5.38;;;3.30;;
49502;SDS011;35409;48.776;9.204;2022-08-21T13:27:28;6.43;;;3.13;;
49502;SDS011;35409;48.776;9.204;2022-08-21T13:30:04;9.15;;;3.60;;
49502;SDS011;35409;48.776;9.204;2022-08-21T13:32:39;7.43;;;3.25;;
49502;SDS011;35409;48.776;9.204;2022-08-21T13:35:08;5.72;;;3.67;;
49502;SDS011;35409;48.776;9.204;2022-08-21T13:38:01;8.27;;;3.30;;
49502;SDS011;35409;48.776;9.204;2022-08-21T13:40:29;5.45;;;2.90;;
49502;SDS011;35409;48.776;9.204;2022-08-21T13:42:57;7.93;;;3.30;;
49502;SDS011;35409;48.776;9.204;2022-08-21T13:45:26;5.72;;;3.13;;
49502;SDS011;35409;48.776;9.204;2022-08-21T13:48:02;6.57;;;3.63;;
49502;SDS011;35409;48.776;9.204;2022-08-21T13:50:30;5.60;;;3.13;;
49502;SDS011;35409;48.776;9.204;2022-08-21T13:53:00;4.90;;;3.03;;
49502;SDS011;35409;48.776;9.204;2022-08-21T13:56:01;5.60;;;3.30;;
49502;SDS011;35409;48.776;9.204;2022-08-21T13:58:24;6.10;;;3.20;;
49502;SDS011;35409;48.776;9.204;2022-08-21T14:00:52;5.93;;;3.28;;
49502;SDS011;35409;48.776;9.204;2022-08-21T14:03:26;6.47;;;2.83;;
49502;SDS011;35409;48.776;9.204;2022-08-21T14:05:52;4.75;;;3.10;;
49502;SDS011;35409;48.776;9.204;2022-08-21T14:08:34;5.45;;;3.47;;
49502;SDS011;35409;48.776;9.204;2022-08-21T14:11:11;6.97;;;3.38;;
49502;SDS011;35409;48.776;9.204;2022-08-21T14:13:42;7.43;;;3.13;;
49502;SDS011;35409;48.776;9.204;2022-08-21T14:19:10;5.70;;;3.17;;
49502;SDS011;35409;48.776;9.204;2022-08-21T14:21:47;5.28;;;3.08;;
49502;SDS011;35409;48.776;9.204;2022-08-21T14:26:51;11.35;;;3.20;;
49502;SDS011;35409;48.776;9.204;2022-08-21T14:29:20;5.65;;;3.00;;
49502;SDS011;35409;48.776;9.204;2022-08-21T14:31:52;4.55;;;3.05;;
49502;SDS011;35409;48.776;9.204;2022-08-21T14:34:27;6.72;;;2.83;;
49502;SDS011;35409;48.776;9.204;2022-08-21T14:36:54;4.35;;;2.55;;
49502;SDS011;35409;48.776;9.204;2022-08-21T14:39:20;4.68;;;3.05;;
49502;SDS011;35409;48.776;9.204;2022-08-21T14:41:46;4.72;;;2.97;;
49502;SDS011;35409;48.776;9.204;2022-08-21T14:44:14;6.22;;;3.50;;
49502;SDS011;35409;48.776;9.204;2022-08-21T14:46:41;5.70;;;3.15;;
49502;SDS011;35409;48.776;9.204;2022-08-21T14:49:07;7.50;;;3.25;;
49502;SDS011;35409;48.776;9.204;2022-08-21T14:51:33;5.45;;;3.30;;
49502;SDS011;35409;48.776;9.204;2022-08-21T14:53:59;6.75;;;2.72;;
49502;SDS011;35409;48.776;9.204;2022-08-21T14:56:25;5.20;;;3.03;;
49502;SDS011;35409;48.776;9.204;2022-08-21T14:58:51;8.65;;;3.40;;
49502;SDS011;35409;48.776;9.204;2022-08-21T15:01:18;6.10;;;2.92;;
49502;SDS011;35409;48.776;9.204;2022-08-21T15:03:46;5.82;;;3.20;;
49502;SDS011;35409;48.776;9.204;2022-08-21T15:06:13;5.05;;;2.90;;
49502;SDS011;35409;48.776;9.204;2022-08-21T15:08:40;6.65;;;3.05;;
49502;SDS011;35409;48.776;9.204;2022-08-21T15:11:06;5.85;;;3.30;;
49502;SDS011;35409;48.776;9.204;2022-08-21T15:13:36;5.72;;;3.40;;
49502;SDS011;35409;48.776;9.204;2022-08-21T15:16:02;5.88;;;2.92;;
49502;SDS011;35409;48.776;9.204;2022-08-21T15:18:29;4.95;;;2.83;;
49502;SDS011;35409;48.776;9.204;2022-08-21T15:20:55;3.92;;;2.90;;
49502;SDS011;35409;48.776;9.204;2022-08-21T15:23:21;7.85;;;3.10;;
49502;SDS011;35409;48.776;9.204;2022-08-21T15:25:47;6.95;;;3.40;;
49502;SDS011;35409;48.776;9.204;2022-08-21T15:28:14;7.28;;;3.40;;
49502;SDS011;35409;48.776;9.204;2022-08-21T15:30:42;6.35;;;3.15;;
49502;SDS011;35409;48.776;9.204;2022-08-21T15:33:08;4.60;;;2.83;;
49502;SDS011;35409;48.776;9.204;2022-08-21T15:35:34;5.05;;;2.80;;
49502;SDS011;35409;48.776;9.204;2022-08-21T15:38:00;5.75;;;3.08;;
49502;SDS011;35409;48.776;9.204;2022-08-21T15:40:26;6.07;;;3.15;;
49502;SDS011;35409;48.776;9.204;2022-08-21T15:42:57;5.75;;;3.03;;
49502;SDS011;35409;48.776;9.204;2022-08-21T15:45:25;6.95;;;3.17;;
49502;SDS011;35409;48.776;9.204;2022-08-21T15:47:51;4.15;;;2.72;;
49502;SDS011;35409;48.776;9.204;2022-08-21T15:50:18;4.70;;;2.95;;
49502;SDS011;35409;48.776;9.204;2022-08-21T15:52:44;8.35;;;3.53;;
49502;SDS011;35409;48.776;9.204;2022-08-21T15:55:10;5.03;;;3.00;;
49502;SDS011;35409;48.776;9.204;2022-08-21T15:57:37;6.00;;;2.72;;
49502;SDS011;35409;48.776;9.204;2022-08-21T16:00:12;5.30;;;2.80;;
49502;SDS011;35409;48.776;9.204;2022-08-21T16:02:48;7.57;;;3.47;;
49502;SDS011;35409;48.776;9.204;2022-08-21T16:05:18;6.63;;;2.88;;
49502;SDS011;35409;48.776;9.204;2022-08-21T16:07:45;3.35;;;2.88;;
49502;SDS011;35409;48.776;9.204;2022-08-21T16:10:11;4.55;;;3.25;;
49502;SDS011;35409;48.776;9.204;2022-08-21T16:12:40;3.30;;;2.70;;
49502;SDS011;35409;48.776;9.204;2022-08-21T16:15:09;5.38;;;2.78;;
49502;SDS011;35409;48.776;9.204;2022-08-21T16:17:37;8.60;;;3.00;;
49502;SDS011;35409;48.776;9.204;2022-08-21T16:20:07;5.43;;;3.03;;
49502;SDS011;35409;48.776;9.204;2022-08-21T16:22:35;3.35;;;2.55;;
49502;SDS011;35409;48.776;9.204;2022-08-21T16:25:01;4.03;;;2.85;;
49502;SDS011;35409;48.776;9.204;2022-08-21T16:27:27;5.30;;;2.90;;
49502;SDS011;35409;48.776;9.204;2022-08-21T16:29:53;4.93;;;2.47;;
49502;SDS011;35409;48.776;9.204;2022-08-21T16:32:19;3.85;;;2.45;;
49502;SDS011;35409;48.776;9.204;2022-08-21T16:34:46;7.28;;;2.90;;
49502;SDS011;35409;48.776;9.204;2022-08-21T16:37:13;5.38;;;3.03;;